< < Back
Terminal Aerodrome Forecast


Current Version              Previous Versions:   1  2  3  4  5  6  7  8  9  

Terminal Aerodrome Forecast

393
FTUS44 KMOB 061426 AAA
TAFMOB
TAF AMD
KMOB 061426Z 0614/0712 36009KT P6SM SKC
     FM070000 VRB03KT P6SM SKC=

Latest METAR

699
SAUS80 KWBC 061800 CCA
MTRMOB
METAR KMOB 061756Z 35009KT 10SM FEW030 22/09 A3003 RMK AO2 SLP167
T02170089 10217 20117 58011


USA.gov is the U.S. government's official web portal to all federal, state and local government web resources and services.